createdAt,value
2017-07-17T00:01:45.502Z,70.90
2017-07-17T00:04:13.034Z,70.90
2017-07-17T00:06:41.631Z,71.30
2017-07-17T00:09:09.197Z,71.10
2017-07-17T00:11:36.672Z,71.30
2017-07-17T00:14:04.177Z,71.20
2017-07-17T00:16:31.767Z,71.30
2017-07-17T00:19:00.350Z,71.50
2017-07-17T00:21:34.927Z,71.30
2017-07-17T00:24:02.710Z,71.40
2017-07-17T00:26:30.203Z,71.30
2017-07-17T00:28:57.693Z,71.30
2017-07-17T00:31:25.188Z,71.30
2017-07-17T00:33:52.670Z,71.30
2017-07-17T00:36:21.191Z,71.20
2017-07-17T00:38:55.488Z,71.20
2017-07-17T00:41:23.256Z,71.30
2017-07-17T00:43:50.743Z,71.40
2017-07-17T00:46:25.415Z,71.30
2017-07-17T00:48:52.893Z,71.30
2017-07-17T00:51:20.375Z,71.30
2017-07-17T00:53:48.194Z,71.30
2017-07-17T00:56:16.430Z,71.90
2017-07-17T00:58:43.910Z,71.90
2017-07-17T01:01:15.260Z,72.20
2017-07-17T01:03:42.736Z,72.50
2017-07-17T01:06:11.326Z,72.90
2017-07-17T01:08:39.575Z,72.90
2017-07-17T01:11:07.064Z,72.90
2017-07-17T01:13:34.582Z,73.20
2017-07-17T01:16:04.998Z,73.30
2017-07-17T01:18:35.982Z,73.40
2017-07-17T01:21:04.235Z,73.90
2017-07-17T01:23:31.718Z,73.80
2017-07-17T01:26:05.303Z,74.10
2017-07-17T01:28:32.820Z,74.40
2017-07-17T01:31:00.647Z,74.70
2017-07-17T01:33:28.890Z,75.20
2017-07-17T01:35:56.367Z,75.10
2017-07-17T01:38:25.655Z,75.30
2017-07-17T01:40:53.137Z,75.30
2017-07-17T01:43:20.898Z,75.30
2017-07-17T01:45:48.388Z,75.30
2017-07-17T01:48:15.863Z,75.20
2017-07-17T01:50:46.385Z,75.20
2017-07-17T01:53:16.947Z,75.10
2017-07-17T01:55:44.708Z,75.20
2017-07-17T01:58:16.163Z,75.70
2017-07-17T02:00:43.633Z,75.80
2017-07-17T02:03:17.245Z,76.00
2017-07-17T02:05:55.767Z,76.50
2017-07-17T02:08:25.900Z,76.60
2017-07-17T02:10:53.385Z,76.50
2017-07-17T02:13:20.872Z,76.60
2017-07-17T02:15:55.083Z,76.50
2017-07-17T02:18:22.563Z,76.40
2017-07-17T02:20:56.779Z,76.40
2017-07-17T02:23:25.350Z,76.50
2017-07-17T02:25:55.958Z,76.50
2017-07-17T02:28:26.418Z,76.40
2017-07-17T02:30:53.900Z,76.20
2017-07-17T02:33:21.758Z,76.40
2017-07-17T02:35:50.044Z,76.60
2017-07-17T02:38:18.290Z,76.60
2017-07-17T02:40:55.982Z,76.50
2017-07-17T02:43:23.458Z,76.70
2017-07-17T02:45:51.243Z,76.90
2017-07-17T02:48:18.718Z,77.80
2017-07-17T02:50:56.237Z,76.80
2017-07-17T02:53:23.723Z,76.80
2017-07-17T02:55:51.197Z,76.60
2017-07-17T02:58:18.754Z,76.60
2017-07-17T03:00:46.991Z,76.60
2017-07-17T03:03:14.742Z,76.40
2017-07-17T03:05:42.222Z,76.70
2017-07-17T03:08:09.695Z,76.90
2017-07-17T03:10:37.172Z,76.80
2017-07-17T03:13:05.506Z,76.80
2017-07-17T03:15:36.399Z,76.80
2017-07-17T03:18:03.993Z,76.90
2017-07-17T03:20:35.126Z,77.00
2017-07-17T03:23:05.708Z,77.20
2017-07-17T03:25:33.276Z,77.30
2017-07-17T03:28:01.045Z,77.10
2017-07-17T03:30:35.163Z,77.20
2017-07-17T03:33:03.741Z,77.00
2017-07-17T03:35:35.544Z,77.10
2017-07-17T03:38:06.468Z,76.90
2017-07-17T03:40:35.660Z,77.20
2017-07-17T03:43:06.265Z,77.20
2017-07-17T03:45:34.534Z,77.30
2017-07-17T03:48:05.444Z,77.10
2017-07-17T03:50:33.272Z,77.10
2017-07-17T03:53:00.753Z,77.40
2017-07-17T03:55:28.225Z,77.50
2017-07-17T03:57:55.723Z,77.20
2017-07-17T04:00:23.207Z,76.90
2017-07-17T04:02:50.941Z,76.90
2017-07-17T04:05:25.270Z,76.60
2017-07-17T04:07:56.410Z,76.50
2017-07-17T04:10:24.668Z,76.50
2017-07-17T04:12:55.960Z,76.40
2017-07-17T04:15:23.458Z,76.50
2017-07-17T04:17:50.946Z,76.50
2017-07-17T04:20:19.458Z,76.80
2017-07-17T04:22:54.659Z,76.80
2017-07-17T04:25:22.398Z,76.80
2017-07-17T04:27:49.872Z,76.80
2017-07-17T04:30:25.704Z,76.60
2017-07-17T04:32:56.132Z,76.60
2017-07-17T04:35:23.652Z,76.40
2017-07-17T04:37:51.151Z,76.20
2017-07-17T04:40:18.632Z,76.30
2017-07-17T04:42:56.554Z,76.00
2017-07-17T04:45:24.838Z,75.90
2017-07-17T04:47:57.109Z,75.80
2017-07-17T04:50:25.319Z,75.70
2017-07-17T04:52:52.808Z,75.90
2017-07-17T04:55:26.396Z,75.80
2017-07-17T04:57:55.082Z,75.90
2017-07-17T05:00:26.073Z,75.80
2017-07-17T05:02:55.263Z,75.70
2017-07-17T05:05:27.343Z,75.00
2017-07-17T05:07:54.832Z,74.90
2017-07-17T05:10:26.208Z,74.90
2017-07-17T05:12:56.738Z,74.70
2017-07-17T05:15:24.220Z,74.50
2017-07-17T05:17:56.186Z,74.40
2017-07-17T05:20:24.434Z,74.20
2017-07-17T05:22:51.909Z,74.10
2017-07-17T05:25:19.487Z,73.70
2017-07-17T05:27:47.751Z,73.30
2017-07-17T05:30:15.617Z,73.20
2017-07-17T05:32:43.874Z,72.80
2017-07-17T05:35:11.459Z,72.70
2017-07-17T05:37:45.366Z,73.20
2017-07-17T05:40:15.045Z,72.50
2017-07-17T05:42:42.856Z,72.40
2017-07-17T05:45:10.417Z,72.40
2017-07-17T05:47:45.673Z,72.50
2017-07-17T05:50:13.151Z,72.70
2017-07-17T05:52:46.696Z,72.90
2017-07-17T05:55:15.000Z,72.80
2017-07-17T05:57:45.539Z,72.70
2017-07-17T06:00:16.570Z,72.80
2017-07-17T06:02:44.127Z,72.70
2017-07-17T06:05:11.613Z,72.70
2017-07-17T06:07:44.934Z,72.70
2017-07-17T06:10:15.639Z,72.70
2017-07-17T06:12:46.647Z,72.90
2017-07-17T06:15:15.030Z,72.80
2017-07-17T06:17:45.417Z,72.80
2017-07-17T06:20:16.027Z,72.80
2017-07-17T06:22:46.670Z,72.60
2017-07-17T06:25:14.422Z,72.30
2017-07-17T06:27:41.894Z,72.20
2017-07-17T06:30:09.374Z,72.00
2017-07-17T06:32:36.887Z,71.80
2017-07-17T06:35:05.626Z,71.60
2017-07-17T06:37:33.415Z,71.30
2017-07-17T06:40:00.907Z,71.20
2017-07-17T06:42:35.351Z,71.00
2017-07-17T06:45:02.847Z,70.70
2017-07-17T06:47:30.329Z,70.70
2017-07-17T06:49:57.825Z,70.70
2017-07-17T06:52:25.304Z,70.30
2017-07-17T06:54:53.903Z,69.50
2017-07-17T06:57:21.395Z,69.40
2017-07-17T06:59:55.830Z,69.30
2017-07-17T07:02:26.366Z,69.30
2017-07-17T07:04:53.799Z,69.00
2017-07-17T07:07:27.384Z,69.00
2017-07-17T07:09:55.186Z,68.80
2017-07-17T07:12:22.960Z,68.60
2017-07-17T07:14:56.295Z,69.00
2017-07-17T07:17:24.160Z,69.10
2017-07-17T07:19:51.638Z,68.90
2017-07-17T07:22:19.130Z,69.50
2017-07-17T07:24:46.650Z,68.00
2017-07-17T07:27:14.130Z,67.50
2017-07-17T07:29:47.855Z,67.00
2017-07-17T07:32:25.196Z,66.70
2017-07-17T07:34:53.054Z,66.30
2017-07-17T07:37:21.311Z,64.10
2017-07-17T07:39:55.350Z,63.90
2017-07-17T07:42:25.903Z,63.50
2017-07-17T07:44:56.717Z,63.30
2017-07-17T07:47:25.923Z,62.10
2017-07-17T07:49:53.405Z,62.10
2017-07-17T07:52:27.107Z,61.50
2017-07-17T07:54:55.749Z,61.10
2017-07-17T07:57:25.340Z,59.90
2017-07-17T07:59:56.300Z,59.90
2017-07-17T08:02:23.794Z,59.90
2017-07-17T08:04:51.268Z,59.30
2017-07-17T08:07:19.083Z,59.10
2017-07-17T08:09:55.051Z,59.00
2017-07-17T08:12:22.902Z,58.80
2017-07-17T08:14:51.177Z,57.90
2017-07-17T08:17:25.093Z,57.80
2017-07-17T08:19:52.572Z,57.50
2017-07-17T08:22:20.100Z,57.60
2017-07-17T08:24:55.487Z,57.10
2017-07-17T08:27:26.388Z,56.90
2017-07-17T08:29:56.203Z,55.80
2017-07-17T08:32:25.344Z,55.70
2017-07-17T08:34:56.079Z,55.80
2017-07-17T08:37:25.278Z,55.60
2017-07-17T08:39:56.265Z,55.40
2017-07-17T08:42:24.517Z,54.10
2017-07-17T08:44:51.991Z,54.00
2017-07-17T08:47:25.648Z,54.40
2017-07-17T08:49:53.119Z,54.10
2017-07-17T08:52:20.869Z,53.70
2017-07-17T08:54:55.207Z,53.40
2017-07-17T08:57:22.984Z,53.40
2017-07-17T08:59:50.470Z,53.40
2017-07-17T09:02:18.714Z,53.00
2017-07-17T09:04:56.743Z,53.00
2017-07-17T09:07:24.992Z,51.50
2017-07-17T09:09:52.471Z,51.50
2017-07-17T09:12:27.317Z,50.60
2017-07-17T09:14:55.589Z,51.90
2017-07-17T09:17:23.359Z,51.80
2017-07-17T09:19:57.064Z,52.00
2017-07-17T09:22:25.642Z,52.00
2017-07-17T09:24:56.382Z,52.00
2017-07-17T09:27:24.643Z,51.80
2017-07-17T09:29:52.898Z,51.60
2017-07-17T09:32:26.936Z,51.60
2017-07-17T09:35:05.755Z,49.50
2017-07-17T09:37:35.326Z,49.80
2017-07-17T09:40:06.313Z,49.70
2017-07-17T09:42:35.670Z,49.00
2017-07-17T09:45:03.167Z,49.00
2017-07-17T09:47:30.647Z,47.80
2017-07-17T09:50:05.501Z,47.00
2017-07-17T09:52:33.331Z,47.20
2017-07-17T09:55:01.571Z,47.50
2017-07-17T09:57:35.306Z,47.40
2017-07-17T10:00:06.914Z,46.90
2017-07-17T10:02:34.735Z,46.80
2017-07-17T10:05:02.227Z,45.80
2017-07-17T10:07:29.698Z,45.10
2017-07-17T10:09:57.194Z,44.60
2017-07-17T10:12:25.431Z,41.60
2017-07-17T10:14:56.799Z,40.90
2017-07-17T10:17:25.179Z,40.80
2017-07-17T10:19:55.911Z,41.30
2017-07-17T10:22:23.403Z,41.10
2017-07-17T10:24:55.127Z,41.20
2017-07-17T10:27:22.908Z,41.10
2017-07-17T10:29:50.396Z,41.30
2017-07-17T10:32:17.884Z,40.00
2017-07-17T10:34:45.393Z,38.50
2017-07-17T10:37:13.663Z,36.00
2017-07-17T10:39:42.253Z,35.30
2017-07-17T10:42:09.741Z,35.30
2017-07-17T10:44:45.173Z,35.20
2017-07-17T10:47:12.657Z,35.50
2017-07-17T10:49:40.136Z,35.00
2017-07-17T10:52:14.710Z,34.40
2017-07-17T10:54:42.200Z,35.00
2017-07-17T10:57:10.027Z,35.90
2017-07-17T10:59:45.523Z,35.00
2017-07-17T11:02:13.328Z,34.70
2017-07-17T11:04:40.819Z,35.10
2017-07-17T11:07:15.840Z,35.40
2017-07-17T11:09:46.500Z,35.90
2017-07-17T11:12:15.136Z,36.60
2017-07-17T11:14:42.619Z,38.00
2017-07-17T11:17:10.101Z,38.50
2017-07-17T11:19:45.030Z,39.30
2017-07-17T11:22:15.521Z,39.00
2017-07-17T11:24:43.767Z,37.00
2017-07-17T11:27:17.404Z,36.90
2017-07-17T11:29:45.304Z,36.80
2017-07-17T11:32:13.061Z,36.90
2017-07-17T11:34:40.548Z,37.30
2017-07-17T11:37:08.021Z,37.60
2017-07-17T11:39:45.491Z,38.30
2017-07-17T11:42:12.983Z,38.30
2017-07-17T11:44:40.865Z,38.70
2017-07-17T12:00:06.502Z,37.30
2017-07-17T12:02:35.020Z,35.80
2017-07-17T12:07:34.946Z,34.50
2017-07-17T12:10:05.843Z,35.10
2017-07-17T12:12:37.456Z,36.00
2017-07-17T12:15:05.946Z,36.80
2017-07-17T12:17:35.640Z,35.70
2017-07-17T12:20:06.152Z,35.50
2017-07-17T12:22:33.625Z,34.70
2017-07-17T12:25:07.151Z,34.90
2017-07-17T12:27:45.820Z,34.50
2017-07-17T12:30:17.032Z,34.50
2017-07-17T12:32:45.143Z,33.20
2017-07-17T12:35:12.632Z,32.00
2017-07-17T12:37:40.143Z,31.50
2017-07-17T12:40:14.915Z,31.30
2017-07-17T12:42:46.099Z,30.70
2017-07-17T12:45:15.287Z,31.30
2017-07-17T12:47:42.776Z,32.20
2017-07-17T12:50:16.304Z,33.00
2017-07-17T12:52:43.788Z,33.50
2017-07-17T12:55:11.567Z,34.10
2017-07-17T12:57:45.014Z,34.50
2017-07-17T13:00:12.841Z,34.90
2017-07-17T13:02:46.212Z,34.00
2017-07-17T13:05:16.175Z,31.20
2017-07-17T13:07:45.412Z,31.10
2017-07-17T13:10:12.915Z,29.80
2017-07-17T13:12:40.433Z,29.10
2017-07-17T13:15:14.933Z,29.50
2017-07-17T13:17:42.767Z,30.20
2017-07-17T13:20:17.335Z,30.90
2017-07-17T13:22:45.457Z,31.70
2017-07-17T13:25:12.956Z,32.40
2017-07-17T13:27:46.694Z,32.90
2017-07-17T13:30:15.270Z,32.40
2017-07-17T13:32:42.753Z,31.60
2017-07-17T13:35:17.238Z,30.00
2017-07-17T13:37:45.936Z,30.00
2017-07-17T13:40:13.742Z,29.70
2017-07-17T13:42:41.225Z,29.50
2017-07-17T13:45:08.712Z,29.80
2017-07-17T13:47:46.682Z,30.20
2017-07-17T13:50:14.181Z,30.30
2017-07-17T13:52:41.968Z,30.60
2017-07-17T13:55:09.478Z,30.00
2017-07-17T13:57:36.956Z,29.70
2017-07-17T14:00:04.743Z,29.80
2017-07-17T14:02:32.999Z,31.60
2017-07-17T14:05:00.483Z,31.50
2017-07-17T14:07:35.173Z,32.30
2017-07-17T14:10:02.679Z,32.20
2017-07-17T14:12:36.548Z,32.20
2017-07-17T14:15:05.137Z,32.80
2017-07-17T14:17:32.637Z,32.70
2017-07-17T14:20:00.144Z,33.20
2017-07-17T14:22:35.655Z,34.10
2017-07-17T14:25:03.417Z,33.40
2017-07-17T14:27:30.916Z,33.40
2017-07-17T14:30:05.461Z,34.20
2017-07-17T14:32:32.956Z,34.50
2017-07-17T14:35:00.451Z,34.80
2017-07-17T14:37:28.389Z,34.50
2017-07-17T14:39:55.889Z,34.70
2017-07-17T14:42:24.407Z,35.50
2017-07-17T14:44:51.887Z,35.80
2017-07-17T14:47:25.840Z,35.50
2017-07-17T14:49:56.448Z,35.30
2017-07-17T14:52:23.939Z,35.90
2017-07-17T14:54:51.714Z,35.70
2017-07-17T14:57:25.133Z,35.40
2017-07-17T14:59:56.250Z,36.20
2017-07-17T15:02:25.516Z,36.90
2017-07-17T15:04:53.000Z,36.80
2017-07-17T15:07:21.259Z,37.50
2017-07-17T15:09:48.748Z,37.50
2017-07-17T15:12:16.524Z,38.40
2017-07-17T15:14:44.024Z,39.30
2017-07-17T15:17:11.518Z,40.00
2017-07-17T15:19:44.740Z,40.80
2017-07-17T15:22:12.245Z,40.90
2017-07-17T15:24:45.935Z,41.00
2017-07-17T15:27:16.751Z,41.10
2017-07-17T15:29:44.260Z,40.90
2017-07-17T15:32:11.749Z,40.70
2017-07-17T15:34:45.273Z,40.80
2017-07-17T15:37:13.136Z,40.90
2017-07-17T15:39:46.454Z,41.20
2017-07-17T15:42:14.237Z,41.30
2017-07-17T15:44:47.732Z,41.30
2017-07-17T15:47:25.600Z,41.40
2017-07-17T15:49:53.079Z,41.30
2017-07-17T15:52:20.565Z,41.20
2017-07-17T15:54:48.070Z,41.00
2017-07-17T15:57:25.821Z,41.20
2017-07-17T15:59:53.608Z,41.20
2017-07-17T16:02:21.109Z,41.30
2017-07-17T16:04:55.083Z,41.20
2017-07-17T16:07:22.579Z,41.30
2017-07-17T16:09:56.081Z,41.40
2017-07-17T16:12:23.577Z,41.40
2017-07-17T16:14:57.302Z,41.50
2017-07-17T16:17:24.800Z,41.50
2017-07-17T16:19:52.288Z,41.80
2017-07-17T16:22:19.792Z,41.80
2017-07-17T16:24:47.294Z,41.80
2017-07-17T16:27:15.137Z,42.20
2017-07-17T16:29:42.619Z,42.00
2017-07-17T16:32:16.952Z,42.10
2017-07-17T16:34:45.451Z,42.40
2017-07-17T16:37:15.244Z,42.70
2017-07-17T16:39:42.756Z,42.60
2017-07-17T16:42:16.241Z,42.90
2017-07-17T16:44:45.418Z,43.10
2017-07-17T16:47:16.812Z,43.30
2017-07-17T16:49:45.595Z,43.20
2017-07-17T16:52:13.084Z,43.60
2017-07-17T16:54:46.782Z,43.10
2017-07-17T16:57:15.503Z,43.00
2017-07-17T16:59:45.166Z,42.90
2017-07-17T17:02:15.765Z,42.80
2017-07-17T17:04:46.363Z,43.10
2017-07-17T17:07:14.105Z,43.60
2017-07-17T17:09:41.587Z,43.70
2017-07-17T17:12:15.156Z,43.80
2017-07-17T17:14:42.651Z,44.10
2017-07-17T17:17:16.347Z,44.10
2017-07-17T17:19:43.833Z,43.80
2017-07-17T17:22:11.416Z,44.10
2017-07-17T17:24:45.360Z,44.30
2017-07-17T17:27:12.852Z,44.40
2017-07-17T17:29:46.714Z,44.50
2017-07-17T17:32:14.202Z,44.20
2017-07-17T17:34:45.124Z,44.40
2017-07-17T17:37:12.906Z,44.50
2017-07-17T17:39:47.139Z,45.00
2017-07-17T17:42:16.245Z,44.90
2017-07-17T17:44:45.542Z,45.00
2017-07-17T17:47:13.040Z,45.20
2017-07-17T17:49:47.531Z,45.50
2017-07-17T17:52:15.018Z,45.60
2017-07-17T17:54:42.511Z,45.50
2017-07-17T17:57:10.014Z,45.80
2017-07-17T17:59:45.152Z,45.70
2017-07-17T18:02:12.997Z,45.80
2017-07-17T18:04:46.513Z,46.20
2017-07-17T18:07:14.390Z,46.30
2017-07-17T18:09:45.035Z,46.50
2017-07-17T18:12:12.561Z,46.60
2017-07-17T18:14:40.420Z,46.80
2017-07-17T18:17:08.661Z,46.60
2017-07-17T18:19:44.940Z,46.50
2017-07-17T18:22:16.565Z,46.40
2017-07-17T18:24:44.073Z,46.40
2017-07-17T18:27:15.007Z,46.30
2017-07-17T18:29:46.609Z,46.80
2017-07-17T18:32:14.375Z,46.80
2017-07-17T18:34:41.867Z,47.00
2017-07-17T18:37:15.563Z,47.20
2017-07-17T18:39:46.167Z,47.50
2017-07-17T18:42:13.656Z,47.80
2017-07-17T18:44:41.179Z,47.90
2017-07-17T18:47:08.671Z,48.20
2017-07-17T18:49:36.467Z,48.40
2017-07-17T18:52:05.230Z,48.80
2017-07-17T18:54:36.200Z,49.30
2017-07-17T18:57:05.526Z,49.70
2017-07-17T18:59:36.426Z,50.00
2017-07-17T19:02:05.705Z,50.50
2017-07-17T19:04:34.019Z,50.90
2017-07-17T19:07:01.546Z,50.80
2017-07-17T19:09:29.031Z,51.20
2017-07-17T19:11:56.901Z,51.40
2017-07-17T19:14:25.606Z,51.60
2017-07-17T19:16:56.121Z,51.80
2017-07-17T19:19:26.557Z,52.00
2017-07-17T19:21:55.076Z,52.40
2017-07-17T19:24:22.935Z,52.80
2017-07-17T19:26:50.433Z,53.10
2017-07-17T19:29:25.888Z,53.90
2017-07-17T19:31:53.366Z,53.90
2017-07-17T19:34:20.858Z,54.20
2017-07-17T19:36:55.480Z,54.50
2017-07-17T19:39:26.194Z,54.80
2017-07-17T19:41:57.105Z,54.90
2017-07-17T19:44:25.355Z,55.10
2017-07-17T19:46:55.879Z,55.30
2017-07-17T19:49:23.671Z,55.60
2017-07-17T19:51:57.679Z,56.00
2017-07-17T19:54:36.714Z,56.20
2017-07-17T19:57:04.200Z,56.10
2017-07-17T19:59:31.691Z,56.40
2017-07-17T20:01:59.188Z,56.70
2017-07-17T20:04:34.786Z,57.00
2017-07-17T20:07:05.983Z,57.20
2017-07-17T20:09:33.458Z,57.40
2017-07-17T20:12:07.636Z,57.50
2017-07-17T20:14:35.891Z,57.30
2017-07-17T20:17:06.888Z,57.70
2017-07-17T20:19:35.524Z,58.00
2017-07-17T20:22:06.027Z,58.20
2017-07-17T20:24:36.829Z,58.40
2017-07-17T20:27:04.310Z,58.60
2017-07-17T20:29:37.776Z,58.70
2017-07-17T20:32:16.142Z,59.00
2017-07-17T20:34:43.955Z,58.90
2017-07-17T20:37:12.198Z,59.20
2017-07-17T20:39:39.683Z,59.10
2017-07-17T20:42:15.784Z,59.40
2017-07-17T20:44:46.356Z,59.60
2017-07-17T20:47:13.848Z,59.70
2017-07-17T20:49:47.304Z,59.90
2017-07-17T20:52:14.783Z,60.10
2017-07-17T20:54:46.141Z,60.30
2017-07-17T20:57:15.337Z,60.60
2017-07-17T20:59:46.185Z,60.90
2017-07-17T21:02:13.668Z,61.10
2017-07-17T21:04:41.154Z,61.40
2017-07-17T21:07:15.710Z,61.70
2017-07-17T21:09:43.951Z,62.20
2017-07-17T21:12:15.013Z,62.20
2017-07-17T21:14:42.800Z,62.50
2017-07-17T21:17:10.282Z,62.50
2017-07-17T21:19:37.758Z,62.90
2017-07-17T21:22:15.235Z,62.90
2017-07-17T21:24:42.721Z,63.20
2017-07-17T21:27:16.340Z,63.20
2017-07-17T21:29:46.830Z,63.50
2017-07-17T21:32:14.308Z,63.60
2017-07-17T21:34:45.052Z,63.80
2017-07-17T21:37:12.542Z,63.80
2017-07-17T21:39:47.410Z,64.10
2017-07-17T21:42:14.899Z,63.90
2017-07-17T21:44:45.434Z,64.10
2017-07-17T21:47:13.182Z,64.90
2017-07-17T21:49:40.676Z,64.30
2017-07-17T21:52:08.157Z,64.30
2017-07-17T21:54:35.648Z,64.60
2017-07-17T21:57:06.384Z,64.50
2017-07-17T21:59:37.292Z,64.70
2017-07-17T22:02:05.423Z,64.80
2017-07-17T22:04:32.912Z,65.00
2017-07-17T22:07:00.410Z,65.10
2017-07-17T22:09:27.888Z,65.10
2017-07-17T22:11:55.702Z,65.20
2017-07-17T22:14:26.465Z,65.40
2017-07-17T22:16:57.379Z,65.60
2017-07-17T22:19:25.573Z,65.80
2017-07-17T22:21:53.130Z,66.10
2017-07-17T22:24:20.623Z,66.20
2017-07-17T22:26:55.058Z,66.40
2017-07-17T22:29:23.672Z,66.70
2017-07-17T22:31:51.163Z,66.50
2017-07-17T22:34:25.748Z,66.50
2017-07-17T22:36:54.028Z,66.50
2017-07-17T22:39:21.517Z,66.50
2017-07-17T22:41:55.175Z,66.60
2017-07-17T22:44:23.431Z,66.70
2017-07-17T22:46:51.227Z,66.60
2017-07-17T22:49:25.457Z,66.70
2017-07-17T22:51:56.373Z,66.70
2017-07-17T22:54:24.633Z,66.90
2017-07-17T22:56:55.035Z,66.70
2017-07-17T22:59:22.847Z,67.00
2017-07-17T23:01:56.051Z,67.20
2017-07-17T23:04:27.188Z,67.20
2017-07-17T23:06:55.414Z,67.20
2017-07-17T23:09:22.911Z,67.30
2017-07-17T23:11:50.472Z,67.40
2017-07-17T23:14:24.992Z,67.50
2017-07-17T23:16:57.180Z,67.70
2017-07-17T23:19:25.275Z,67.70
2017-07-17T23:21:52.804Z,67.90
2017-07-17T23:24:20.292Z,68.00
2017-07-17T23:26:54.779Z,68.10
2017-07-17T23:29:22.620Z,68.30
2017-07-17T23:31:56.739Z,68.50
2017-07-17T23:34:24.587Z,68.60
2017-07-17T23:36:52.881Z,69.60
2017-07-17T23:39:26.954Z,68.70
2017-07-17T23:41:54.455Z,68.80
2017-07-17T23:44:21.941Z,68.80
2017-07-17T23:46:49.734Z,68.90
2017-07-17T23:49:17.220Z,69.00
2017-07-17T23:51:44.767Z,69.00
2017-07-17T23:54:12.360Z,69.10
2017-07-17T23:56:45.642Z,69.20
2017-07-17T23:59:13.412Z,69.40
